Time;durP1;ratioP1;P1;durP2;ratioP2;P2;SDS_P1;SDS_P2;PMS_P1;PMS_P2;Temp;Humidity;BMP_temperature;BMP_pressure;BME280_temperature;BME280_humidity;BME280_pressure;Samples;Min_cycle;Max_cycle;Signal;HPM_P1;HPM_P2
2021/01/10 00:00:58;;;;;;;32.72;19.38;;;;;;;4.77;74.60;100550.34;6187460;23;20043;-80
2021/01/10 00:03:24;;;;;;;33.80;20.35;;;;;;;4.77;74.75;100555.56;6187170;23;20025;-80
2021/01/10 00:05:51;;;;;;;41.63;20.30;;;;;;;4.77;74.71;100563.38;6186959;23;20481;-80
2021/01/10 00:08:17;;;;;;;37.45;20.17;;;;;;;4.75;74.54;100554.72;6187355;23;20017;-80
2021/01/10 00:10:43;;;;;;;65.03;21.02;;;;;;;4.73;74.61;100558.25;6187374;23;20036;-80
2021/01/10 00:13:10;;;;;;;39.45;21.20;;;;;;;4.71;74.48;100566.09;6186711;23;20403;-79
2021/01/10 00:15:39;;;;;;;35.33;19.13;;;;;;;4.69;74.49;100560.94;6187337;23;20025;-81
2021/01/10 00:18:05;;;;;;;39.80;21.13;;;;;;;4.67;74.73;100560.09;6187271;23;20023;-80
2021/01/10 00:20:33;;;;;;;38.55;21.45;;;;;;;4.69;74.83;100560.06;6161272;23;20079;-80
2021/01/10 00:23:01;;;;;;;39.53;20.83;;;;;;;4.67;74.90;100559.22;6186744;23;20024;-80
2021/01/10 00:25:28;;;;;;;61.72;23.05;;;;;;;4.67;74.98;100564.44;6187287;23;20025;-80
2021/01/10 00:27:54;;;;;;;62.33;24.65;;;;;;;4.66;74.97;100561.00;6187251;23;20075;-80
2021/01/10 00:30:21;;;;;;;79.60;27.33;;;;;;;4.67;74.90;100559.22;6187093;23;20060;-80
2021/01/10 00:32:55;;;;;;;101.68;27.40;;;;;;;4.66;74.84;100565.34;6186947;23;20381;-80
2021/01/10 00:35:23;;;;;;;120.45;26.05;;;;;;;4.66;74.97;100561.00;6186756;23;20521;-80
2021/01/10 00:37:54;;;;;;;110.72;26.52;;;;;;;4.65;74.95;100563.63;6187036;23;20028;-80
2021/01/10 00:40:22;;;;;;;121.28;26.33;;;;;;;4.64;74.87;100561.91;6187208;23;20028;-79
2021/01/10 00:42:48;;;;;;;94.90;23.67;;;;;;;4.64;75.28;100559.31;6186619;23;20024;-79
2021/01/10 00:45:17;;;;;;;124.07;26.55;;;;;;;4.64;75.08;100554.09;6186992;23;20048;-80
2021/01/10 00:47:43;;;;;;;133.75;27.40;;;;;;;4.65;75.25;100555.81;6186965;23;20329;-80
2021/01/10 00:50:10;;;;;;;99.57;25.17;;;;;;;4.63;75.21;100553.22;6186630;23;20100;-80
2021/01/10 00:52:38;;;;;;;132.80;26.20;;;;;;;4.65;75.52;100553.19;6186665;23;20025;-80
2021/01/10 00:55:06;;;;;;;91.82;25.80;;;;;;;4.66;75.55;100549.69;6186944;23;20021;-80
2021/01/10 00:57:32;;;;;;;60.80;24.00;;;;;;;4.67;75.83;100547.06;6186774;23;20021;-80
2021/01/10 00:59:58;;;;;;;92.07;24.50;;;;;;;4.70;75.67;100548.75;6186448;23;20460;-80
2021/01/10 01:02:24;;;;;;;64.38;22.70;;;;;;;4.74;75.61;100549.56;6186182;23;20025;-80
2021/01/10 01:04:50;;;;;;;97.03;23.63;;;;;;;4.78;75.91;100557.28;6186494;23;20359;-79
2021/01/10 01:07:16;;;;;;;95.05;23.30;;;;;;;4.83;75.75;100562.41;6186900;23;20021;-80
2021/01/10 01:09:42;;;;;;;84.60;21.48;;;;;;;4.87;75.66;100561.47;6186874;23;20021;-80
2021/01/10 01:12:21;;;;;;;99.70;24.55;;;;;;;4.92;75.73;100563.97;6186485;23;20021;-80
2021/01/10 01:14:47;;;;;;;48.42;23.60;;;;;;;4.97;75.56;100566.50;6186368;23;20025;-80
2021/01/10 01:17:15;;;;;;;100.50;24.83;;;;;;;5.00;75.20;100571.63;6186669;23;20021;-80
2021/01/10 01:19:41;;;;;;;51.17;21.58;;;;;;;5.03;75.37;100571.56;6186719;23;20021;-80
2021/01/10 01:22:07;;;;;;;42.25;21.85;;;;;;;5.05;75.32;100573.25;6186282;23;20363;-80
2021/01/10 01:24:33;;;;;;;53.92;21.90;;;;;;;5.07;75.38;100571.50;6186685;23;20032;-80
2021/01/10 01:26:59;;;;;;;65.35;25.10;;;;;;;5.10;75.19;100567.94;6186314;23;20024;-80
2021/01/10 01:29:26;;;;;;;41.65;22.40;;;;;;;5.13;75.38;100572.25;6186208;23;20075;-80
2021/01/10 01:31:52;;;;;;;53.05;23.65;;;;;;;5.15;75.08;100573.06;6186497;23;20051;-80
2021/01/10 01:34:18;;;;;;;48.88;24.23;;;;;;;5.16;75.01;100574.78;6186374;23;20036;-80
2021/01/10 01:36:44;;;;;;;51.92;22.52;;;;;;;5.16;74.70;100566.97;6186463;23;20025;-80
2021/01/10 01:39:10;;;;;;;74.32;24.27;;;;;;;5.15;74.75;100575.66;6186472;23;20029;-80
2021/01/10 01:41:38;;;;;;;87.35;25.40;;;;;;;5.14;74.69;100569.59;6186477;23;20460;-80
2021/01/10 01:44:05;;;;;;;82.55;25.35;;;;;;;5.13;74.75;100574.84;6185785;23;20025;-80
2021/01/10 01:46:36;;;;;;;52.55;23.58;;;;;;;5.08;74.36;100575.81;6186465;23;20024;-79
2021/01/10 01:49:07;;;;;;;101.95;25.05;;;;;;;5.08;74.68;100570.59;6186359;23;20460;-80
2021/01/10 01:51:35;;;;;;;54.05;22.80;;;;;;;5.06;74.85;100564.56;6186383;23;20028;-80
2021/01/10 01:54:03;;;;;;;73.05;21.80;;;;;;;5.04;74.74;100579.38;6185779;23;20105;-80
2021/01/10 01:56:29;;;;;;;97.97;23.65;;;;;;;5.03;74.57;100574.19;6186055;23;20179;-80
2021/01/10 01:58:57;;;;;;;65.13;24.05;;;;;;;5.01;74.86;100578.59;6186242;23;20017;-80
2021/01/10 02:01:28;;;;;;;73.53;23.15;;;;;;;4.98;74.80;100574.28;6186315;23;20025;-80
2021/01/10 02:04:32;;;;;;;87.30;23.00;;;;;;;4.95;74.69;100580.44;6186186;23;20348;-80
2021/01/10 02:07:21;;;;;;;85.80;22.38;;;;;;;4.98;74.84;100573.41;6179570;23;20039;-79
2021/01/10 02:10:10;;;;;;;51.20;21.23;;;;;;;4.98;74.83;100579.50;6185995;23;20025;-80
2021/01/10 02:12:48;;;;;;;36.55;18.65;;;;;;;4.96;74.86;100576.06;6185514;23;20471;-80
2021/01/10 02:15:18;;;;;;;39.90;18.92;;;;;;;4.97;75.09;100577.78;6185794;23;20021;-80
2021/01/10 02:17:49;;;;;;;32.63;18.77;;;;;;;4.98;74.88;100571.69;6186136;23;20025;-80
2021/01/10 02:20:22;;;;;;;29.83;16.10;;;;;;;4.98;74.83;100581.25;6186194;23;20456;-80
2021/01/10 02:22:55;;;;;;;30.88;16.08;;;;;;;4.97;74.76;100582.16;6185849;23;20104;-80
2021/01/10 02:25:24;;;;;;;26.48;14.43;;;;;;;4.98;74.79;100574.28;6186055;23;20025;-80
2021/01/10 02:27:51;;;;;;;38.17;16.70;;;;;;;4.98;75.01;100581.25;6186077;23;20021;-80
2021/01/10 02:30:20;;;;;;;30.77;15.77;;;;;;;4.95;74.73;100572.59;6185669;23;20024;-80
2021/01/10 02:32:50;;;;;;;27.27;15.23;;;;;;;4.94;74.95;100570.03;6159703;23;20028;-80
2021/01/10 02:35:17;;;;;;;46.53;16.52;;;;;;;4.95;75.02;100569.13;6185661;23;20079;-79
2021/01/10 02:38:31;;;;;;;40.78;17.45;;;;;;;4.90;74.27;100566.59;6185886;23;20021;-79
2021/01/10 02:41:14;;;;;;;28.70;16.15;;;;;;;4.91;74.96;100570.06;6186030;23;20021;-80
2021/01/10 02:43:46;;;;;;;41.05;16.95;;;;;;;4.94;75.07;100568.25;6185778;23;20033;-79
2021/01/10 02:46:13;;;;;;;28.48;16.77;;;;;;;4.97;75.23;100566.50;6186092;23;20025;-80
2021/01/10 02:48:41;;;;;;;32.75;14.73;;;;;;;4.98;75.28;100569.06;6185973;23;20080;-80
2021/01/10 02:51:11;;;;;;;31.88;16.75;;;;;;;5.01;75.33;100573.38;6185562;23;20464;-80
2021/01/10 02:53:37;;;;;;;24.77;14.50;;;;;;;5.04;75.25;100573.28;6159678;23;20092;-79
2021/01/10 02:56:05;;;;;;;19.65;11.52;;;;;;;5.05;75.23;100567.19;6186280;23;20071;-79
2021/01/10 02:58:34;;;;;;;29.42;13.07;;;;;;;5.06;75.05;100561.94;6185945;23;20021;-79
2021/01/10 03:01:07;;;;;;;21.05;10.70;;;;;;;5.09;74.67;100558.41;6185950;23;20088;-80
2021/01/10 03:03:33;;;;;;;21.45;11.40;;;;;;;5.11;74.56;100558.34;6159273;23;20341;-79
2021/01/10 03:06:02;;;;;;;19.77;10.70;;;;;;;5.09;74.37;100555.81;6186496;23;20079;-79
2021/01/10 03:08:29;;;;;;;14.18;9.90;;;;;;;5.08;74.57;100570.59;6187623;23;20021;-79
2021/01/10 03:10:56;;;;;;;18.90;10.85;;;;;;;5.07;74.17;100562.78;6187608;23;20079;-80
2021/01/10 03:13:22;;;;;;;19.55;9.88;;;;;;;5.04;74.34;100555.88;6187963;23;20025;-80
2021/01/10 03:15:51;;;;;;;12.95;8.57;;;;;;;5.02;74.59;100557.69;6187963;23;20043;-80
2021/01/10 03:18:19;;;;;;;13.88;8.80;;;;;;;5.02;74.54;100562.03;6187829;23;20021;-79
2021/01/10 03:20:49;;;;;;;13.52;9.07;;;;;;;5.02;74.82;100554.19;6187971;23;20020;-80
2021/01/10 03:23:16;;;;;;;14.07;9.10;;;;;;;5.02;74.91;100548.97;6185750;23;20029;-85
2021/01/10 03:25:42;;;;;;;10.88;7.55;;;;;;;5.03;74.78;100545.47;6161671;23;20036;-85
2021/01/10 03:28:08;;;;;;;14.18;8.30;;;;;;;5.05;75.20;100554.16;6188313;23;20474;-85
2021/01/10 03:30:36;;;;;;;10.20;6.85;;;;;;;5.05;74.98;100554.97;6161611;23;20092;-87
2021/01/10 03:33:03;;;;;;;10.98;5.88;;;;;;;5.08;75.02;100554.94;6186552;23;20106;-86
2021/01/10 03:35:29;;;;;;;10.85;6.95;;;;;;;5.12;75.07;100560.94;6187448;23;20025;-85
2021/01/10 03:37:56;;;;;;;9.85;6.38;;;;;;;5.14;74.76;100558.28;6188225;23;20024;-85
2021/01/10 03:40:22;;;;;;;10.45;5.95;;;;;;;5.17;74.84;100555.63;6162094;23;20063;-85
2021/01/10 03:42:48;;;;;;;12.43;6.55;;;;;;;5.20;74.75;100558.19;6187645;23;20029;-85
2021/01/10 03:45:16;;;;;;;12.40;6.65;;;;;;;5.22;74.65;100556.38;6161994;23;20048;-85
2021/01/10 03:47:43;;;;;;;12.65;7.38;;;;;;;5.24;74.72;100545.91;6188275;23;20017;-85
2021/01/10 03:50:10;;;;;;;12.50;6.97;;;;;;;5.25;74.53;100543.28;6161912;23;20063;-85
2021/01/10 03:52:38;;;;;;;10.25;6.65;;;;;;;5.26;74.42;100542.38;6161536;23;20056;-86
2021/01/10 03:55:05;;;;;;;9.82;5.80;;;;;;;5.27;74.01;100544.09;6161891;23;20448;-86
2021/01/10 03:57:32;;;;;;;8.98;5.93;;;;;;;5.28;74.31;100538.00;6160971;23;20518;-86
2021/01/10 03:59:58;;;;;;;10.93;7.53;;;;;;;5.30;74.21;100535.31;6161266;23;20033;-85
2021/01/10 04:02:24;;;;;;;12.80;7.07;;;;;;;5.31;74.16;100529.22;6187639;23;20024;-85
2021/01/10 04:04:52;;;;;;;11.88;7.47;;;;;;;5.30;74.39;100536.19;6161203;23;20048;-85
2021/01/10 04:07:20;;;;;;;13.43;8.18;;;;;;;5.31;74.11;100531.84;6187723;23;20021;-85
2021/01/10 04:09:47;;;;;;;16.88;9.48;;;;;;;5.31;74.12;100537.91;6161188;23;20333;-86
2021/01/10 04:12:13;;;;;;;15.50;9.05;;;;;;;5.31;74.12;100535.28;6187290;23;20483;-85
2021/01/10 04:14:39;;;;;;;17.65;9.75;;;;;;;5.30;73.94;100533.56;6161762;23;20029;-86
2021/01/10 04:17:05;;;;;;;15.10;10.15;;;;;;;5.28;73.96;100524.94;6160562;23;20017;-85
2021/01/10 04:19:31;;;;;;;16.30;9.18;;;;;;;5.26;73.64;100531.94;6161120;23;20092;-86
2021/01/10 04:21:58;;;;;;;17.58;10.02;;;;;;;5.24;73.69;100531.13;6187816;23;20024;-85
2021/01/10 04:24:24;;;;;;;12.50;8.57;;;;;;;5.21;73.56;100531.19;6187603;23;20028;-85
2021/01/10 04:26:50;;;;;;;12.88;7.47;;;;;;;5.17;73.64;100532.13;6160980;23;20459;-85
2021/01/10 04:29:19;;;;;;;13.18;7.85;;;;;;;5.15;73.99;100533.91;6161609;23;20021;-85
2021/01/10 04:31:47;;;;;;;12.73;8.18;;;;;;;5.13;73.84;100535.72;6161512;23;20100;-86
2021/01/10 04:34:14;;;;;;;15.48;8.05;;;;;;;5.11;74.16;100532.25;6161260;23;20071;-85
2021/01/10 04:36:41;;;;;;;13.35;8.18;;;;;;;5.09;74.17;100530.53;6161684;23;20028;-86
2021/01/10 04:39:07;;;;;;;13.02;8.45;;;;;;;5.08;74.33;100533.19;6187287;23;20025;-85
2021/01/10 04:41:34;;;;;;;10.30;7.90;;;;;;;5.07;74.14;100528.88;6160702;23;20025;-85
2021/01/10 04:44:01;;;;;;;15.35;7.85;;;;;;;5.05;74.28;100531.50;6161057;23;20025;-85
2021/01/10 04:46:28;;;;;;;13.60;9.48;;;;;;;5.04;74.25;100526.31;6161312;23;20021;-85
2021/01/10 04:48:57;;;;;;;11.95;9.05;;;;;;;5.03;74.11;100522.00;6161100;23;20092;-85
2021/01/10 04:51:26;;;;;;;23.30;10.40;;;;;;;5.00;73.97;100519.44;6161181;23;20021;-85
2021/01/10 04:53:56;;;;;;;21.95;9.65;;;;;;;4.99;74.00;100530.78;6160969;23;20083;-86
2021/01/10 04:56:30;;;;;;;15.38;9.35;;;;;;;4.94;73.91;100523.91;6160612;23;20020;-85
2021/01/10 04:59:01;;;;;;;16.88;9.10;;;;;;;4.93;74.04;100524.81;6161079;23;20326;-85
2021/01/10 05:01:33;;;;;;;13.30;8.90;;;;;;;4.93;74.44;100529.16;6161216;23;20021;-85
2021/01/10 05:04:03;;;;;;;14.80;9.18;;;;;;;4.91;74.53;100529.22;6161452;23;20396;-86
2021/01/10 05:06:33;;;;;;;19.83;9.73;;;;;;;4.89;74.23;100522.28;6160759;23;20036;-85
2021/01/10 05:09:03;;;;;;;18.30;10.73;;;;;;;4.88;74.33;100525.78;6160864;23;20021;-85
2021/01/10 05:11:29;;;;;;;49.35;11.48;;;;;;;4.86;74.28;100522.38;6160888;23;20020;-85
2021/01/10 05:13:55;;;;;;;19.48;9.38;;;;;;;4.81;74.30;100515.50;6160798;23;20025;-86
2021/01/10 05:16:21;;;;;;;13.40;9.30;;;;;;;4.80;74.37;100525.94;6160636;23;20028;-86
2021/01/10 05:18:52;;;;;;;17.30;9.15;;;;;;;4.76;74.14;100533.00;6136066;23;20459;-85
2021/01/10 05:21:20;;;;;;;16.20;9.32;;;;;;;4.77;74.93;100534.69;6160688;23;20095;-84
2021/01/10 05:23:57;;;;;;;38.85;11.20;;;;;;;4.72;74.30;100531.34;6160174;23;20024;-86
2021/01/10 05:26:31;;;;;;;20.25;9.57;;;;;;;4.73;74.50;100535.66;6160688;23;20028;-85
2021/01/10 05:29:07;;;;;;;14.05;9.57;;;;;;;4.72;74.41;100536.56;6160630;23;20451;-85
2021/01/10 05:31:42;;;;;;;17.42;10.65;;;;;;;4.74;75.01;100528.69;6161604;23;20021;-85
2021/01/10 05:34:15;;;;;;;18.70;8.98;;;;;;;4.73;74.81;100529.56;6161025;23;20025;-85
2021/01/10 05:36:42;;;;;;;17.55;9.30;;;;;;;4.73;74.92;100530.44;6160841;23;20025;-86
2021/01/10 05:39:23;;;;;;;22.70;10.00;;;;;;;4.71;74.67;100523.53;6160250;23;20024;-85
2021/01/10 05:41:56;;;;;;;14.98;8.63;;;;;;;4.72;74.75;100526.13;6186369;23;20029;-85
2021/01/10 05:44:31;;;;;;;26.88;9.85;;;;;;;4.72;74.70;100520.91;6160384;23;20025;-85
2021/01/10 05:47:05;;;;;;;19.73;9.52;;;;;;;4.71;74.62;100532.19;6161086;23;20021;-85
2021/01/10 05:49:31;;;;;;;16.35;9.27;;;;;;;4.71;74.76;100532.19;6160706;23;20028;-85
2021/01/10 05:52:09;;;;;;;16.10;9.15;;;;;;;4.67;74.62;100525.31;6160574;23;20048;-85
2021/01/10 05:54:41;;;;;;;14.07;8.70;;;;;;;4.70;74.91;100530.47;6186423;23;20032;-85
2021/01/10 05:57:12;;;;;;;36.85;9.52;;;;;;;4.69;75.18;100531.38;6160097;23;20506;-86
2021/01/10 05:59:49;;;;;;;44.13;10.60;;;;;;;4.67;74.71;100538.38;6186843;23;20075;-85
2021/01/10 06:02:32;;;;;;;51.58;9.90;;;;;;;4.66;74.66;100528.81;6160530;23;20021;-85
2021/01/10 06:05:16;;;;;;;32.50;9.18;;;;;;;4.66;74.52;100537.53;6160067;23;20028;-85
2021/01/10 06:07:44;;;;;;;56.75;10.75;;;;;;;4.67;74.67;100536.63;6160579;23;20103;-86
2021/01/10 06:10:11;;;;;;;14.70;8.43;;;;;;;4.65;74.84;100529.72;6160681;23;20021;-85
2021/01/10 06:12:39;;;;;;;12.50;7.88;;;;;;;4.62;74.79;100540.22;6185873;23;20025;-86
2021/01/10 06:15:15;;;;;;;23.50;9.43;;;;;;;4.56;74.46;100536.84;6160485;23;20044;-85
2021/01/10 06:17:43;;;;;;;17.50;8.93;;;;;;;4.57;74.81;100543.75;6160293;23;20017;-85
2021/01/10 06:20:25;;;;;;;15.65;8.35;;;;;;;4.52;74.50;100539.56;6160116;23;20025;-86
2021/01/10 06:22:53;;;;;;;17.67;8.57;;;;;;;4.54;74.88;100543.84;6186288;23;20025;-85
2021/01/10 06:25:22;;;;;;;19.48;9.48;;;;;;;4.53;74.78;100546.47;6160377;23;20025;-86
2021/01/10 06:28:08;;;;;;;20.27;9.98;;;;;;;4.46;74.21;100543.13;6186455;23;20017;-85
2021/01/10 06:30:37;;;;;;;17.70;9.90;;;;;;;4.47;74.94;100542.22;6159882;23;20032;-85
2021/01/10 06:33:06;;;;;;;18.50;9.43;;;;;;;4.46;74.78;100539.66;6160001;23;20021;-85
2021/01/10 06:35:40;;;;;;;16.50;10.40;;;;;;;4.40;74.62;100540.63;6186162;23;20104;-85
2021/01/10 06:38:08;;;;;;;15.10;8.13;;;;;;;4.40;74.67;100544.09;6160132;23;20018;-85
2021/01/10 06:40:41;;;;;;;19.42;8.82;;;;;;;4.37;74.78;100535.47;6160141;23;20036;-85
2021/01/10 06:43:08;;;;;;;15.23;7.90;;;;;;;4.36;74.54;100536.34;6159578;23;20025;-85
2021/01/10 06:45:38;;;;;;;17.65;8.15;;;;;;;4.33;74.86;100544.25;6186732;23;20029;-85
2021/01/10 06:48:08;;;;;;;18.65;9.68;;;;;;;4.30;75.06;100545.16;6160443;23;20429;-84
2021/01/10 06:50:36;;;;;;;14.68;7.80;;;;;;;4.29;74.81;100546.91;6185990;23;20017;-85
2021/01/10 06:53:06;;;;;;;18.45;8.40;;;;;;;4.27;75.03;100546.06;6185834;23;20464;-84
2021/01/10 06:55:33;;;;;;;12.10;8.40;;;;;;;4.26;74.95;100546.94;6160266;23;20028;-84
2021/01/10 06:58:11;;;;;;;15.85;7.72;;;;;;;4.24;74.90;100551.34;6186697;23;20017;-85
2021/01/10 07:00:53;;;;;;;14.23;8.57;;;;;;;4.21;75.10;100537.47;6160583;23;20052;-85
2021/01/10 07:03:19;;;;;;;12.85;8.25;;;;;;;4.23;74.99;100541.78;6159213;23;20037;-86
2021/01/10 07:06:10;;;;;;;14.73;7.88;;;;;;;4.17;74.75;100542.78;6160287;23;20028;-85
2021/01/10 07:08:41;;;;;;;12.77;7.88;;;;;;;4.18;74.84;100541.00;6159733;23;20029;-87
2021/01/10 07:11:23;;;;;;;14.77;8.43;;;;;;;4.15;74.69;100551.50;6159823;23;20017;-87
2021/01/10 07:13:51;;;;;;;18.58;8.38;;;;;;;4.17;75.09;100550.59;6160465;23;20025;-87
2021/01/10 07:16:21;;;;;;;23.50;10.10;;;;;;;4.15;75.40;100546.28;6160423;23;20021;-87
2021/01/10 07:18:49;;;;;;;14.68;8.77;;;;;;;4.15;75.55;100548.91;6186059;23;20017;-87
2021/01/10 07:21:28;;;;;;;13.98;8.20;;;;;;;4.14;75.00;100547.16;6186263;23;20028;-88
2021/01/10 07:24:13;;;;;;;13.65;8.32;;;;;;;4.13;74.96;100558.47;6185969;23;20025;-86
2021/01/10 07:26:45;;;;;;;15.93;8.95;;;;;;;4.14;75.01;100548.03;6160161;23;20083;-86
2021/01/10 07:29:30;;;;;;;15.90;7.97;;;;;;;4.11;74.99;100550.69;6160181;23;20028;-86
2021/01/10 07:31:58;;;;;;;14.90;8.60;;;;;;;4.14;75.26;100549.75;6160367;23;20017;-87
2021/01/10 07:34:25;;;;;;;15.25;9.57;;;;;;;4.14;75.59;100550.63;6185635;23;20023;-87
2021/01/10 07:36:53;;;;;;;15.32;9.40;;;;;;;4.13;75.47;100553.25;6159859;23;20080;-87
2021/01/10 07:39:24;;;;;;;17.48;8.27;;;;;;;4.12;75.01;100552.41;6185914;23;20021;-85
2021/01/10 07:41:52;;;;;;;15.10;8.55;;;;;;;4.12;75.33;100559.38;6160200;23;20392;-86
2021/01/10 07:44:18;;;;;;;14.82;8.95;;;;;;;4.11;75.22;100558.50;6186081;23;20021;-86
2021/01/10 07:46:51;;;;;;;14.88;8.50;;;;;;;4.10;75.38;100559.38;6160362;23;20397;-86
2021/01/10 07:49:23;;;;;;;12.88;8.88;;;;;;;4.11;75.56;100563.72;6159855;23;20372;-86
2021/01/10 07:51:49;;;;;;;14.88;8.57;;;;;;;4.11;75.39;100562.88;6186765;23;20368;-86
2021/01/10 07:54:16;;;;;;;16.60;8.43;;;;;;;4.11;75.16;100561.09;6187743;23;20021;-87
2021/01/10 07:56:42;;;;;;;18.15;9.43;;;;;;;4.09;74.83;100560.28;6187719;23;20025;-87
2021/01/10 07:59:16;;;;;;;16.40;10.23;;;;;;;4.05;74.80;100566.44;6161714;23;20021;-86
2021/01/10 08:01:54;;;;;;;14.93;8.48;;;;;;;4.03;75.10;100561.25;6187588;23;20028;-86
2021/01/10 08:04:35;;;;;;;16.35;8.27;;;;;;;4.00;74.68;100574.31;6161746;23;20032;-86
2021/01/10 08:07:03;;;;;;;13.95;8.73;;;;;;;4.02;74.98;100569.94;6187113;23;20460;-86
2021/01/10 08:09:31;;;;;;;14.23;9.10;;;;;;;3.99;75.10;100571.72;6161600;23;20059;-87
2021/01/10 08:12:07;;;;;;;14.65;8.70;;;;;;;3.96;74.76;100580.47;6161651;23;20021;-86
2021/01/10 08:14:33;;;;;;;14.90;8.63;;;;;;;3.94;75.07;100582.25;6161888;23;20025;-86
2021/01/10 08:17:01;;;;;;;16.58;7.85;;;;;;;3.92;75.10;100581.38;6187995;23;20091;-86
2021/01/10 08:19:28;;;;;;;12.48;9.10;;;;;;;3.90;75.38;100581.41;6161788;23;20321;-87
2021/01/10 08:21:54;;;;;;;17.42;9.75;;;;;;;3.90;75.47;100588.38;6187009;23;20021;-88
2021/01/10 08:24:20;;;;;;;16.45;9.60;;;;;;;3.89;75.49;100586.66;6161458;23;20025;-87
2021/01/10 08:26:47;;;;;;;13.32;9.27;;;;;;;3.88;75.37;100585.81;6161379;23;20318;-86
2021/01/10 08:29:16;;;;;;;14.93;8.80;;;;;;;3.89;75.35;100586.66;6187599;23;20025;-87
2021/01/10 08:31:49;;;;;;;12.80;8.27;;;;;;;3.88;75.63;100590.13;6161516;23;20079;-85
2021/01/10 08:34:16;;;;;;;13.93;8.68;;;;;;;3.91;75.78;100595.31;6187331;23;20025;-87
2021/01/10 08:36:46;;;;;;;17.75;10.35;;;;;;;3.92;75.81;100591.81;6161506;23;20029;-86
2021/01/10 08:39:17;;;;;;;17.08;9.98;;;;;;;3.95;75.61;100583.94;6161785;23;20494;-87
2021/01/10 08:41:47;;;;;;;16.75;9.88;;;;;;;3.98;75.51;100591.72;6161161;23;20025;-87
2021/01/10 08:44:21;;;;;;;14.73;9.45;;;;;;;3.97;75.35;100590.00;6187149;23;20021;-86
2021/01/10 08:46:49;;;;;;;20.17;11.00;;;;;;;4.02;75.56;100589.91;6187412;23;20029;-86
2021/01/10 08:49:20;;;;;;;14.40;9.52;;;;;;;4.04;75.49;100596.81;6161857;23;20021;-86
2021/01/10 08:51:50;;;;;;;18.08;10.07;;;;;;;4.06;75.60;100585.50;6187370;23;20493;-86
2021/01/10 08:54:19;;;;;;;21.48;10.27;;;;;;;4.08;75.19;100602.00;6186980;23;20063;-85
2021/01/10 08:56:50;;;;;;;15.50;9.68;;;;;;;4.07;74.82;100601.13;6160966;23;20029;-86
2021/01/10 08:59:19;;;;;;;19.27;10.88;;;;;;;4.11;75.24;100596.75;6161623;23;20028;-86
2021/01/10 09:01:49;;;;;;;21.70;9.32;;;;;;;4.12;75.42;100603.66;6187310;23;20352;-87
2021/01/10 09:04:17;;;;;;;16.88;8.88;;;;;;;4.14;75.27;100602.75;6160966;23;20021;-86
2021/01/10 09:06:57;;;;;;;14.90;9.38;;;;;;;4.12;74.46;100595.84;6161204;23;20021;-87
2021/01/10 09:09:41;;;;;;;12.88;9.38;;;;;;;4.13;74.75;100593.22;6187360;23;20028;-87
2021/01/10 09:12:38;;;;;;;16.08;9.73;;;;;;;4.12;74.13;100590.63;6161123;23;20421;-87
2021/01/10 09:15:08;;;;;;;16.50;9.50;;;;;;;4.14;74.99;100592.31;6161073;23;20466;-85
2021/01/10 09:17:36;;;;;;;11.88;8.38;;;;;;;4.15;75.12;100591.44;6161353;23;20021;-86
2021/01/10 09:20:08;;;;;;;16.50;9.88;;;;;;;4.16;75.25;100592.31;6187279;23;20399;-86
2021/01/10 09:22:34;;;;;;;17.02;9.50;;;;;;;4.18;75.41;100598.34;6184601;23;20021;-82
2021/01/10 09:25:14;;;;;;;17.40;8.48;;;;;;;4.17;75.44;100600.09;6186351;23;20100;-83
2021/01/10 09:28:05;;;;;;;15.98;8.15;;;;;;;4.20;74.98;100590.50;6186826;23;20403;-82
2021/01/10 09:30:31;;;;;;;14.68;9.85;;;;;;;4.25;75.38;100589.53;6186703;23;20017;-82
2021/01/10 09:32:59;;;;;;;14.02;8.82;;;;;;;4.27;75.25;100587.75;6187772;23;20104;-81
2021/01/10 09:35:25;;;;;;;18.17;10.77;;;;;;;4.28;75.31;100592.09;6186696;23;20076;-83
2021/01/10 09:37:51;;;;;;;25.40;11.73;;;;;;;4.31;75.15;100599.00;6186495;23;20020;-82
2021/01/10 09:40:17;;;;;;;18.05;11.88;;;;;;;4.31;75.23;100593.78;6160755;23;20028;-82
2021/01/10 09:42:45;;;;;;;19.30;11.93;;;;;;;4.31;75.26;100599.00;6186318;23;20025;-82
2021/01/10 09:45:14;;;;;;;20.80;13.65;;;;;;;4.33;75.22;100598.97;6186585;23;20025;-82
2021/01/10 09:47:48;;;;;;;27.67;13.07;;;;;;;4.34;75.25;100598.94;6186622;23;20050;-83
2021/01/10 09:50:16;;;;;;;19.90;12.55;;;;;;;4.35;75.10;100591.97;6186460;23;20021;-82
2021/01/10 09:52:53;;;;;;;20.98;12.88;;;;;;;4.35;74.64;100599.81;6185821;23;20033;-83
2021/01/10 09:55:24;;;;;;;16.85;11.68;;;;;;;4.39;74.97;100602.34;6186462;23;20021;-82
2021/01/10 09:57:52;;;;;;;24.45;12.50;;;;;;;4.38;75.02;100600.59;6186062;23;20021;-82
2021/01/10 10:00:18;;;;;;;19.85;11.82;;;;;;;4.40;75.14;100597.97;6186409;23;20021;-83
2021/01/10 10:02:47;;;;;;;23.60;11.60;;;;;;;4.41;75.03;100599.72;6186091;23;20028;-82
2021/01/10 10:05:22;;;;;;;20.42;12.18;;;;;;;4.39;74.40;100599.72;6160274;23;20083;-83
2021/01/10 10:08:00;;;;;;;18.80;11.45;;;;;;;4.38;73.87;100605.81;6186615;23;20024;-82
2021/01/10 10:10:28;;;;;;;21.17;10.77;;;;;;;4.42;74.83;100601.44;6186094;23;20021;-82
2021/01/10 10:13:06;;;;;;;18.13;11.65;;;;;;;4.39;74.17;100598.88;6186034;23;20400;-83
2021/01/10 10:15:35;;;;;;;20.45;10.23;;;;;;;4.41;74.62;100600.56;6185844;23;20021;-83
2021/01/10 10:18:01;;;;;;;19.35;10.77;;;;;;;4.43;75.16;100590.09;6185684;23;20017;-82
2021/01/10 10:20:28;;;;;;;18.50;11.38;;;;;;;4.45;75.32;100587.47;6186289;23;20045;-82
2021/01/10 10:22:54;;;;;;;18.85;11.13;;;;;;;4.48;75.35;100585.66;6185614;23;20403;-83
2021/01/10 10:25:20;;;;;;;19.20;10.73;;;;;;;4.51;75.12;100595.16;6186241;23;20025;-82
2021/01/10 10:27:55;;;;;;;20.15;10.55;;;;;;;4.52;74.76;100591.69;6186490;23;20075;-83
2021/01/10 10:30:23;;;;;;;19.20;10.48;;;;;;;4.56;75.14;100591.59;6185835;23;20460;-83
2021/01/10 10:32:49;;;;;;;16.48;9.38;;;;;;;4.60;75.37;100579.34;6185706;23;20087;-83
2021/01/10 10:35:16;;;;;;;16.17;8.80;;;;;;;4.62;75.03;100568.91;6185699;23;20025;-82
2021/01/10 10:37:42;;;;;;;21.70;10.35;;;;;;;4.64;75.04;100574.94;6186014;23;20020;-80
2021/01/10 10:40:08;;;;;;;16.65;9.55;;;;;;;4.68;75.49;100571.41;6186113;23;20392;-81
2021/01/10 10:42:34;;;;;;;15.88;9.80;;;;;;;4.73;75.67;100568.69;6185750;23;20021;-80
2021/01/10 10:45:00;;;;;;;17.90;10.40;;;;;;;4.79;75.59;100571.19;6186017;23;20075;-80
2021/01/10 10:47:26;;;;;;;18.63;11.00;;;;;;;4.83;75.11;100565.88;6185957;23;20021;-80
2021/01/10 10:49:53;;;;;;;14.60;8.90;;;;;;;4.88;75.33;100570.13;6185983;23;20395;-80
2021/01/10 10:52:19;;;;;;;15.88;9.75;;;;;;;4.92;75.25;100575.28;6185364;23;20417;-80
2021/01/10 10:54:45;;;;;;;21.58;10.93;;;;;;;4.94;74.95;100567.41;6185643;23;20032;-80
2021/01/10 10:57:11;;;;;;;16.85;9.95;;;;;;;4.97;75.03;100567.34;6159843;23;20028;-80
2021/01/10 10:59:38;;;;;;;22.98;11.32;;;;;;;4.99;74.94;100562.09;6185876;23;20021;-80
2021/01/10 11:02:11;;;;;;;15.45;10.18;;;;;;;5.02;74.99;100562.03;6185531;23;20028;-80
2021/01/10 11:04:38;;;;;;;;;;;;;;;5.04;73.45;100558.50;6186455;23;20025;-80
2021/01/10 11:07:06;;;;;;;19.23;9.63;;;;;;;5.11;74.74;100550.53;6185934;23;19916;-80
2021/01/10 11:09:32;;;;;;;16.38;10.45;;;;;;;5.14;75.10;100553.06;6159838;23;20022;-80
2021/01/10 11:11:58;;;;;;;15.55;10.23;;;;;;;5.14;75.06;100551.34;6159742;23;20329;-80
2021/01/10 11:14:25;;;;;;;17.40;10.18;;;;;;;5.17;74.82;100558.25;6185988;23;20021;-80
2021/01/10 11:16:52;;;;;;;17.67;10.40;;;;;;;5.20;74.47;100552.97;6185857;23;20391;-81
2021/01/10 11:19:20;;;;;;;17.42;9.93;;;;;;;5.21;74.69;100555.50;6186103;23;20344;-80
2021/01/10 11:21:48;;;;;;;16.45;9.18;;;;;;;5.24;74.79;100553.75;6185306;23;20032;-80
2021/01/10 11:24:15;;;;;;;15.48;10.65;;;;;;;5.26;74.91;100552.81;6185685;23;20056;-80
2021/01/10 11:26:45;;;;;;;17.73;10.25;;;;;;;5.29;74.85;100552.75;6186220;23;20076;-80
2021/01/10 11:29:12;;;;;;;18.75;10.02;;;;;;;5.32;74.49;100551.81;6187816;23;20021;-81
2021/01/10 11:31:40;;;;;;;15.45;9.95;;;;;;;5.35;74.83;100547.38;6187719;23;20021;-80
2021/01/10 11:34:08;;;;;;;15.40;9.27;;;;;;;5.38;74.58;100538.63;6187536;23;20092;-80